createdAt,value
2018-09-14T00:00:11.048Z,59.52
2018-09-14T00:02:42.879Z,60.01
2018-09-14T00:05:14.534Z,60.32
2018-09-14T00:07:46.323Z,59.54
2018-09-14T00:10:18.145Z,59.76
2018-09-14T00:12:49.925Z,59.19
2018-09-14T00:15:21.942Z,60.08
2018-09-14T00:17:53.580Z,59.97
2018-09-14T00:20:25.280Z,59.79
2018-09-14T00:22:56.981Z,60.21
2018-09-14T00:25:28.842Z,59.21
2018-09-14T00:28:01.864Z,59.60
2018-09-14T00:30:33.811Z,59.94
2018-09-14T00:33:06.019Z,59.56
2018-09-14T00:35:37.663Z,59.82
2018-09-14T00:38:09.542Z,59.62
2018-09-14T00:40:41.464Z,59.53
2018-09-14T00:43:14.995Z,58.81
2018-09-14T00:45:46.737Z,59.55
2018-09-14T00:48:18.423Z,58.47
2018-09-14T00:50:50.264Z,58.66
2018-09-14T00:53:22.415Z,58.92
2018-09-14T00:55:54.153Z,59.02
2018-09-14T00:58:26.305Z,58.84
2018-09-14T01:00:58.129Z,58.56
2018-09-14T01:03:30.193Z,59.48
2018-09-14T01:06:01.937Z,58.86
2018-09-14T01:08:33.894Z,58.92
2018-09-14T01:11:05.741Z,59.22
2018-09-14T01:16:16.768Z,58.54
2018-09-14T01:18:48.728Z,58.81
2018-09-14T01:21:20.815Z,59.68
2018-09-14T01:23:52.496Z,58.92
2018-09-14T01:26:24.616Z,59.85
2018-09-14T01:28:56.414Z,59.58
2018-09-14T01:31:28.098Z,59.14
2018-09-14T01:34:00.011Z,59.87
2018-09-14T01:36:31.870Z,59.49
2018-09-14T01:39:03.824Z,60.09
2018-09-14T01:41:36.447Z,59.91
2018-09-14T01:44:09.271Z,60.52
2018-09-14T01:46:41.244Z,60.67
2018-09-14T01:49:12.879Z,60.17
2018-09-14T01:51:44.969Z,60.96
2018-09-14T01:54:16.885Z,61.12
2018-09-14T01:56:48.728Z,60.12
2018-09-14T01:59:20.580Z,60.33
2018-09-14T02:01:52.216Z,60.76
2018-09-14T02:04:23.860Z,60.33
2018-09-14T02:06:56.441Z,60.49
2018-09-14T02:09:28.255Z,60.96
2018-09-14T02:12:00.115Z,60.94
2018-09-14T02:14:31.768Z,61.74
2018-09-14T02:17:03.602Z,61.17
2018-09-14T02:19:36.307Z,61.83
2018-09-14T02:22:08.141Z,61.73
2018-09-14T02:24:39.785Z,61.66
2018-09-14T02:27:11.763Z,61.50
2018-09-14T02:29:43.654Z,61.67
2018-09-14T02:32:15.789Z,61.22
2018-09-14T02:34:47.168Z,62.13
2018-09-14T02:37:19.159Z,61.72
2018-09-14T02:39:50.663Z,61.89
2018-09-14T02:42:22.351Z,62.29
2018-09-14T02:44:53.794Z,62.28
2018-09-14T02:47:25.702Z,62.24
2018-09-14T02:49:57.543Z,61.82
2018-09-14T02:52:29.384Z,62.59
2018-09-14T02:55:01.638Z,61.83
2018-09-14T02:57:33.380Z,62.45
2018-09-14T03:00:05.108Z,61.66
2018-09-14T03:02:37.494Z,62.18
2018-09-14T03:05:09.526Z,62.05
2018-09-14T03:07:41.393Z,62.35
2018-09-14T03:10:12.884Z,61.52
2018-09-14T03:12:44.717Z,61.66
2018-09-14T03:15:16.097Z,61.79
2018-09-14T03:17:48.020Z,61.75
2018-09-14T03:20:19.674Z,62.20
2018-09-14T03:22:51.761Z,62.18
2018-09-14T03:25:23.454Z,61.40
2018-09-14T03:27:55.245Z,61.47
2018-09-14T03:30:26.941Z,61.59
2018-09-14T03:32:58.808Z,61.67
2018-09-14T03:35:30.455Z,61.20
2018-09-14T03:38:02.283Z,61.05
2018-09-14T03:40:33.986Z,61.38
2018-09-14T03:43:05.827Z,61.48
2018-09-14T03:45:37.869Z,60.63
2018-09-14T03:48:09.463Z,60.87
2018-09-14T03:50:41.111Z,61.45
2018-09-14T03:53:12.733Z,60.89
2018-09-14T03:55:45.091Z,61.53
2018-09-14T03:58:17.177Z,60.77
2018-09-14T04:00:48.633Z,60.96
2018-09-14T04:03:20.559Z,61.22
2018-09-14T04:05:52.626Z,61.01
2018-09-14T04:08:24.477Z,60.72
2018-09-14T04:10:56.386Z,61.30
2018-09-14T04:13:28.462Z,60.51
2018-09-14T04:16:00.439Z,60.81
2018-09-14T04:18:32.989Z,60.96
2018-09-14T04:21:04.794Z,61.38
2018-09-14T04:23:36.646Z,61.79
2018-09-14T04:26:08.383Z,61.23
2018-09-14T04:28:40.310Z,61.65
2018-09-14T04:31:11.978Z,61.72
2018-09-14T04:33:43.600Z,61.15
2018-09-14T04:36:15.215Z,61.08
2018-09-14T04:38:47.056Z,61.13
2018-09-14T04:41:18.853Z,61.17
2018-09-14T04:43:50.528Z,61.42
2018-09-14T04:46:22.300Z,61.57
2018-09-14T04:48:54.088Z,61.68
2018-09-14T04:51:25.950Z,61.37
2018-09-14T04:53:58.094Z,60.94
2018-09-14T04:56:29.733Z,58.48
2018-09-14T04:59:01.545Z,60.31
2018-09-14T05:01:33.433Z,56.69
2018-09-14T05:04:05.512Z,58.90
2018-09-14T05:06:37.292Z,60.82
2018-09-14T05:09:10.424Z,61.89
2018-09-14T05:11:42.277Z,62.62
2018-09-14T05:14:14.392Z,62.37
2018-09-14T05:16:46.384Z,62.76
2018-09-14T05:19:18.241Z,62.41
2018-09-14T05:21:50.281Z,62.38
2018-09-14T05:24:22.374Z,61.97
2018-09-14T05:26:54.030Z,61.34
2018-09-14T05:29:26.141Z,60.89
2018-09-14T05:31:58.137Z,60.60
2018-09-14T05:34:29.987Z,60.85
2018-09-14T05:37:01.687Z,61.95
2018-09-14T05:39:33.502Z,61.37
2018-09-14T05:42:05.158Z,61.28
2018-09-14T05:44:36.976Z,62.24
2018-09-14T05:47:10.491Z,61.47
2018-09-14T05:49:42.425Z,61.54
2018-09-14T05:52:14.359Z,60.74
2018-09-14T05:54:46.139Z,61.87
2018-09-14T05:57:18.471Z,61.33
2018-09-14T05:59:50.274Z,60.90
2018-09-14T06:02:22.111Z,61.25
2018-09-14T06:04:53.736Z,61.34
2018-09-14T06:07:25.444Z,61.16
2018-09-14T06:09:57.221Z,61.80
2018-09-14T06:12:28.979Z,60.63
2018-09-14T06:15:00.912Z,60.61
2018-09-14T06:17:32.651Z,60.61
2018-09-14T06:20:04.636Z,61.30
2018-09-14T06:22:36.471Z,60.53
2018-09-14T06:25:09.225Z,61.55
2018-09-14T06:27:40.711Z,61.10
2018-09-14T06:30:12.644Z,61.09
2018-09-14T06:32:44.369Z,60.26
2018-09-14T06:35:16.317Z,61.42
2018-09-14T06:37:48.150Z,60.88
2018-09-14T06:40:19.933Z,61.37
2018-09-14T06:42:51.721Z,60.82
2018-09-14T06:45:23.304Z,60.16
2018-09-14T06:47:54.918Z,59.95
2018-09-14T06:50:26.691Z,59.37
2018-09-14T06:52:58.477Z,59.90
2018-09-14T06:55:30.285Z,59.88
2018-09-14T06:58:02.020Z,59.78
2018-09-14T07:00:33.744Z,59.71
2018-09-14T07:03:05.559Z,59.84
2018-09-14T07:05:37.395Z,60.57
2018-09-14T07:08:08.949Z,60.13
2018-09-14T07:10:40.999Z,58.99
2018-09-14T07:13:12.718Z,59.68
2018-09-14T07:15:44.770Z,59.00
2018-09-14T07:18:16.521Z,59.29
2018-09-14T07:20:48.397Z,59.41
2018-09-14T07:23:20.116Z,59.54
2018-09-14T07:25:52.758Z,59.30
2018-09-14T07:28:24.550Z,59.77
2018-09-14T07:30:56.472Z,59.20
2018-09-14T07:33:28.044Z,59.51
2018-09-14T07:35:59.877Z,59.60
2018-09-14T07:38:31.422Z,59.92
2018-09-14T07:41:03.315Z,59.83
2018-09-14T07:43:35.080Z,58.79
2018-09-14T07:46:06.970Z,59.49
2018-09-14T07:48:38.638Z,59.00
2018-09-14T07:51:10.549Z,59.85
2018-09-14T07:53:42.276Z,59.61
2018-09-14T07:56:14.095Z,59.34
2018-09-14T07:58:45.831Z,59.23
2018-09-14T08:01:17.743Z,59.28
2018-09-14T08:03:49.634Z,59.24
2018-09-14T08:06:21.435Z,60.03
2018-09-14T08:08:53.332Z,59.37
2018-09-14T08:11:25.324Z,59.32
2018-09-14T08:13:57.013Z,59.88
2018-09-14T08:16:28.795Z,58.93
2018-09-14T08:19:00.430Z,58.64
2018-09-14T08:21:32.414Z,59.50
2018-09-14T08:24:04.217Z,59.75
2018-09-14T08:26:37.520Z,59.12
2018-09-14T08:29:09.280Z,59.54
2018-09-14T08:31:41.038Z,59.36
2018-09-14T08:34:12.904Z,58.68
2018-09-14T08:36:44.994Z,57.64
2018-09-14T08:39:16.854Z,57.15
2018-09-14T08:41:48.686Z,56.69
2018-09-14T08:44:20.560Z,56.56
2018-09-14T08:46:52.221Z,57.10
2018-09-14T08:49:24.135Z,57.57
2018-09-14T08:51:56.124Z,57.17
2018-09-14T08:54:28.004Z,56.49
2018-09-14T08:56:59.774Z,56.32
2018-09-14T08:59:31.474Z,56.89
2018-09-14T09:02:03.473Z,56.60
2018-09-14T09:04:35.263Z,56.64
2018-09-14T09:07:07.122Z,56.22
2018-09-14T09:09:39.245Z,56.11
2018-09-14T09:12:11.286Z,57.09
2018-09-14T09:14:43.119Z,56.71
2018-09-14T09:17:15.022Z,56.68
2018-09-14T09:19:46.804Z,57.46
2018-09-14T09:22:18.521Z,56.27
2018-09-14T09:24:50.409Z,55.54
2018-09-14T09:27:22.419Z,55.69
2018-09-14T09:29:54.195Z,55.16
2018-09-14T09:32:26.125Z,55.00
2018-09-14T09:34:57.729Z,55.97
2018-09-14T09:37:29.692Z,55.63
2018-09-14T09:40:01.449Z,51.67
2018-09-14T09:42:34.089Z,56.05
2018-09-14T09:45:05.849Z,54.81
2018-09-14T09:47:37.822Z,54.56
2018-09-14T09:50:09.568Z,54.69
2018-09-14T09:52:42.643Z,55.50
2018-09-14T09:55:14.464Z,55.15
2018-09-14T09:57:46.349Z,55.28
2018-09-14T10:00:22.705Z,56.31
2018-09-14T10:04:01.553Z,55.64
2018-09-14T10:06:33.359Z,55.24
2018-09-14T10:12:13.168Z,54.81
2018-09-14T10:14:44.961Z,55.88
2018-09-14T10:17:16.809Z,54.31
2018-09-14T10:19:48.827Z,53.58
2018-09-14T10:22:20.741Z,54.70
2018-09-14T10:24:52.838Z,54.33
2018-09-14T10:27:24.607Z,53.97
2018-09-14T10:29:56.426Z,53.90
2018-09-14T10:32:28.600Z,53.48
2018-09-14T10:35:00.542Z,54.12
2018-09-14T10:37:32.819Z,53.43
2018-09-14T10:40:04.907Z,54.49
2018-09-14T10:42:36.910Z,54.16
2018-09-14T10:45:08.470Z,54.31
2018-09-14T10:47:40.269Z,54.40
2018-09-14T10:50:12.055Z,53.13
2018-09-14T10:52:44.278Z,53.25
2018-09-14T10:55:16.013Z,53.73
2018-09-14T10:57:47.864Z,53.72
2018-09-14T11:00:19.868Z,53.45
2018-09-14T11:02:51.755Z,53.85
2018-09-14T11:05:23.628Z,53.22
2018-09-14T11:07:55.702Z,53.21
2018-09-14T11:10:27.452Z,53.55
2018-09-14T11:12:59.426Z,53.85
2018-09-14T11:15:32.391Z,54.08
2018-09-14T11:18:04.107Z,52.99
2018-09-14T11:20:35.928Z,52.85
2018-09-14T11:23:07.793Z,53.06
2018-09-14T11:25:39.715Z,52.59
2018-09-14T11:28:11.753Z,51.98
2018-09-14T11:30:43.618Z,52.24
2018-09-14T11:33:15.507Z,51.97
2018-09-14T11:35:47.237Z,53.46
2018-09-14T11:38:19.235Z,53.60
2018-09-14T11:40:51.097Z,52.64
2018-09-14T11:43:23.083Z,52.39
2018-09-14T11:45:55.996Z,53.36
2018-09-14T11:48:27.977Z,52.39
2018-09-14T11:51:00.084Z,52.45
2018-09-14T11:53:33.227Z,52.80
2018-09-14T11:56:05.120Z,52.88
2018-09-14T11:58:38.356Z,53.31
2018-09-14T12:01:10.201Z,52.86
2018-09-14T12:03:43.340Z,52.10
2018-09-14T12:06:15.931Z,52.62
2018-09-14T12:08:48.101Z,52.91
2018-09-14T12:11:19.920Z,51.80
2018-09-14T12:13:51.913Z,52.10
2018-09-14T12:16:24.536Z,51.89
2018-09-14T12:18:57.687Z,52.23
2018-09-14T12:21:29.613Z,52.29
2018-09-14T12:24:01.475Z,52.11
2018-09-14T12:26:33.426Z,51.79
2018-09-14T12:29:05.370Z,53.60
2018-09-14T12:31:37.392Z,52.03
2018-09-14T12:34:09.517Z,52.58
2018-09-14T12:36:41.218Z,52.89
2018-09-14T12:39:13.699Z,51.66
2018-09-14T12:41:45.286Z,52.76
2018-09-14T12:44:17.594Z,52.26
2018-09-14T12:46:49.640Z,53.40
2018-09-14T12:49:21.435Z,52.45
2018-09-14T12:51:53.156Z,53.42
2018-09-14T12:54:25.430Z,53.57
2018-09-14T12:56:58.592Z,52.21
2018-09-14T12:59:30.493Z,52.83
2018-09-14T13:02:02.285Z,53.12
2018-09-14T13:04:34.588Z,53.26
2018-09-14T13:07:06.369Z,52.84
2018-09-14T13:09:38.724Z,52.50
2018-09-14T13:12:11.162Z,52.52
2018-09-14T13:14:43.682Z,51.40
2018-09-14T13:17:15.498Z,52.99
2018-09-14T13:19:47.791Z,53.91
2018-09-14T13:22:19.361Z,52.18
2018-09-14T13:24:51.308Z,53.10
2018-09-14T13:27:23.101Z,53.30
2018-09-14T13:29:54.918Z,53.15
2018-09-14T13:32:26.896Z,54.80
2018-09-14T13:34:58.911Z,52.70
2018-09-14T13:37:31.011Z,53.57
2018-09-14T13:40:03.716Z,52.07
2018-09-14T13:42:35.449Z,52.71
2018-09-14T13:45:07.273Z,53.08
2018-09-14T13:47:38.971Z,43.09
2018-09-14T13:50:11.179Z,42.81
2018-09-14T13:52:43.250Z,45.12
2018-09-14T13:55:15.560Z,47.44
2018-09-14T13:57:47.453Z,47.88
2018-09-14T14:00:19.427Z,49.48
2018-09-14T14:02:51.209Z,49.42
2018-09-14T14:05:23.060Z,49.51
2018-09-14T14:07:54.905Z,50.13
2018-09-14T14:10:27.153Z,51.12
2018-09-14T14:12:58.978Z,51.57
2018-09-14T14:15:32.038Z,53.02
2018-09-14T14:18:03.797Z,53.58
2018-09-14T14:20:35.523Z,52.90
2018-09-14T14:23:07.337Z,54.07
2018-09-14T14:25:39.334Z,54.20
2018-09-14T14:28:11.154Z,54.97
2018-09-14T14:30:42.994Z,54.18
2018-09-14T14:33:14.667Z,54.91
2018-09-14T14:35:46.892Z,54.40
2018-09-14T14:38:18.574Z,54.88
2018-09-14T14:40:50.640Z,54.42
2018-09-14T14:43:22.071Z,54.72
2018-09-14T14:45:53.997Z,55.52
2018-09-14T14:48:26.105Z,55.67
2018-09-14T14:50:57.864Z,54.86
2018-09-14T14:53:29.520Z,55.76
2018-09-14T14:56:01.450Z,55.33
2018-09-14T14:58:33.275Z,55.68
2018-09-14T15:01:05.980Z,57.11
2018-09-14T15:03:37.848Z,57.66
2018-09-14T15:06:09.684Z,56.75
2018-09-14T15:08:41.293Z,56.19
2018-09-14T15:11:13.201Z,56.11
2018-09-14T15:13:45.145Z,57.07
2018-09-14T15:16:17.257Z,57.82
2018-09-14T15:18:49.008Z,57.79
2018-09-14T15:21:20.595Z,57.15
2018-09-14T15:23:52.522Z,57.89
2018-09-14T15:26:24.538Z,57.98
2018-09-14T15:28:56.716Z,57.53
2018-09-14T15:31:28.606Z,58.20
2018-09-14T15:34:00.445Z,58.04
2018-09-14T15:36:32.298Z,58.43
2018-09-14T15:39:04.471Z,58.20
2018-09-14T15:41:36.471Z,58.45
2018-09-14T15:44:08.300Z,57.32
2018-09-14T15:46:40.207Z,58.14
2018-09-14T15:49:11.939Z,58.06
2018-09-14T15:51:43.709Z,58.76
2018-09-14T15:54:15.461Z,58.94
2018-09-14T15:56:47.408Z,58.86
2018-09-14T15:59:19.311Z,58.73
2018-09-14T16:01:51.309Z,58.46
2018-09-14T16:04:23.213Z,58.75
2018-09-14T16:06:54.966Z,58.70
2018-09-14T16:09:26.685Z,59.17
2018-09-14T16:11:58.563Z,59.68
2018-09-14T16:14:30.354Z,59.12
2018-09-14T16:17:02.285Z,58.73
2018-09-14T16:19:34.123Z,59.60
2018-09-14T16:22:06.006Z,59.04
2018-09-14T16:24:37.626Z,58.93
2018-09-14T16:27:09.527Z,58.96
2018-09-14T16:29:41.422Z,59.70
2018-09-14T16:32:13.237Z,58.73
2018-09-14T16:34:45.033Z,58.96
2018-09-14T16:37:16.917Z,59.44
2018-09-14T16:39:48.935Z,58.69
2018-09-14T16:42:20.834Z,58.92
2018-09-14T16:44:52.565Z,58.48
2018-09-14T16:47:24.342Z,58.58
2018-09-14T16:49:55.990Z,58.79
2018-09-14T16:52:27.807Z,59.21
2018-09-14T16:55:00.462Z,58.97
2018-09-14T16:57:32.384Z,58.20
2018-09-14T17:00:03.937Z,57.84
2018-09-14T17:02:36.062Z,58.00
2018-09-14T17:05:08.046Z,57.62
2018-09-14T17:07:39.958Z,56.61
2018-09-14T17:10:11.769Z,56.98
2018-09-14T17:12:43.651Z,56.29
2018-09-14T17:15:15.405Z,54.88
2018-09-14T17:17:47.266Z,54.98
2018-09-14T17:20:19.369Z,54.27
2018-09-14T17:22:51.562Z,54.96
2018-09-14T17:25:23.398Z,55.11
2018-09-14T17:27:55.953Z,54.13
2018-09-14T17:30:27.542Z,54.90
2018-09-14T17:32:59.348Z,54.48
2018-09-14T17:35:31.018Z,54.64
2018-09-14T17:38:03.006Z,54.00
2018-09-14T17:40:34.713Z,53.92
2018-09-14T17:43:06.730Z,54.23
2018-09-14T17:45:38.696Z,50.81
2018-09-14T17:48:11.584Z,51.59
2018-09-14T17:50:43.390Z,51.08
2018-09-14T17:53:15.528Z,49.80
2018-09-14T17:55:47.372Z,49.85
2018-09-14T17:58:19.229Z,52.46
2018-09-14T18:00:51.147Z,52.27
2018-09-14T18:03:22.715Z,52.72
2018-09-14T18:05:54.500Z,52.44
2018-09-14T18:08:26.374Z,53.29
2018-09-14T18:10:58.249Z,53.81
2018-09-14T18:13:29.989Z,53.56
2018-09-14T18:16:01.764Z,54.02
2018-09-14T18:18:33.692Z,54.03
2018-09-14T18:21:05.503Z,54.71
2018-09-14T18:23:37.747Z,54.44
2018-09-14T18:26:09.611Z,55.32
2018-09-14T18:28:41.813Z,54.55
2018-09-14T18:31:13.521Z,54.45
2018-09-14T18:33:45.390Z,55.38
2018-09-14T18:36:17.365Z,40.35
2018-09-14T18:38:49.024Z,44.93
2018-09-14T18:41:20.735Z,45.45
2018-09-14T18:43:52.678Z,47.76
2018-09-14T18:46:24.537Z,49.89
2018-09-14T18:48:56.357Z,52.28
2018-09-14T18:51:28.094Z,53.36
2018-09-14T18:53:59.998Z,52.33
2018-09-14T18:56:31.851Z,53.28
2018-09-14T18:59:03.941Z,54.12
2018-09-14T19:01:35.493Z,53.21
2018-09-14T19:04:07.020Z,53.97
2018-09-14T19:06:38.767Z,53.85
2018-09-14T19:09:12.572Z,54.23
2018-09-14T19:11:44.253Z,54.04
2018-09-14T19:14:16.059Z,53.81
2018-09-14T19:16:47.836Z,53.88
2018-09-14T19:19:19.729Z,53.44
2018-09-14T19:21:51.492Z,54.68
2018-09-14T19:24:23.320Z,54.46
2018-09-14T19:26:54.972Z,53.96
2018-09-14T19:29:27.229Z,54.09
2018-09-14T19:31:58.975Z,54.88
2018-09-14T19:34:31.024Z,54.49
2018-09-14T19:37:02.868Z,53.89
2018-09-14T19:39:34.713Z,53.92
2018-09-14T19:42:06.428Z,53.25
2018-09-14T19:44:38.441Z,52.12
2018-09-14T19:47:10.290Z,52.68
2018-09-14T19:49:43.178Z,53.88
2018-09-14T19:52:14.898Z,51.36
2018-09-14T19:54:46.961Z,52.30
2018-09-14T19:57:18.859Z,52.63
2018-09-14T19:59:50.703Z,53.15
2018-09-14T20:02:22.424Z,52.80
2018-09-14T20:04:54.251Z,53.02
2018-09-14T20:07:25.959Z,53.16
2018-09-14T20:12:27.958Z,53.16
2018-09-14T20:14:59.511Z,53.92
2018-09-14T20:17:31.355Z,53.27
2018-09-14T20:20:03.310Z,53.72
2018-09-14T20:22:35.481Z,49.82
2018-09-14T20:25:07.176Z,51.99
2018-09-14T20:27:39.188Z,51.86
2018-09-14T20:30:11.498Z,52.38
2018-09-14T20:32:43.115Z,53.16
2018-09-14T20:35:14.920Z,52.38
2018-09-14T20:37:47.100Z,52.92
2018-09-14T20:40:18.701Z,52.79
2018-09-14T20:42:50.602Z,52.42
2018-09-14T20:45:22.373Z,52.58
2018-09-14T20:47:54.248Z,52.41
2018-09-14T20:50:26.337Z,53.43
2018-09-14T20:52:58.015Z,53.09
2018-09-14T20:55:30.250Z,53.40
2018-09-14T20:58:01.974Z,53.15
2018-09-14T21:00:33.723Z,52.97
2018-09-14T21:03:05.948Z,53.18
2018-09-14T21:05:37.897Z,52.91
2018-09-14T21:08:09.759Z,53.35
2018-09-14T21:10:41.583Z,52.51
2018-09-14T21:13:13.530Z,52.69
2018-09-14T21:15:45.457Z,52.81
2018-09-14T21:18:17.441Z,52.63
2018-09-14T21:20:49.107Z,52.80
2018-09-14T21:23:21.080Z,53.28
2018-09-14T21:25:52.884Z,52.41
2018-09-14T21:28:24.727Z,53.10
2018-09-14T21:30:57.050Z,53.31
2018-09-14T21:33:28.884Z,53.17
2018-09-14T21:36:00.731Z,52.47
2018-09-14T21:38:32.613Z,52.48
2018-09-14T21:41:04.531Z,53.38
2018-09-14T21:43:36.474Z,53.52
2018-09-14T21:46:08.266Z,53.26
2018-09-14T21:48:40.049Z,52.45
2018-09-14T21:51:11.766Z,52.85
2018-09-14T21:53:44.034Z,53.84
2018-09-14T21:56:15.840Z,52.83
2018-09-14T21:58:47.660Z,53.06
2018-09-14T22:01:35.344Z,53.87
2018-09-14T22:04:07.208Z,52.99
2018-09-14T22:06:39.053Z,53.83
2018-09-14T22:09:11.884Z,53.89
2018-09-14T22:11:44.181Z,53.04
2018-09-14T22:14:16.183Z,53.40
2018-09-14T22:16:47.682Z,53.31
2018-09-14T22:19:20.575Z,53.22
2018-09-14T22:21:52.253Z,53.94
2018-09-14T22:24:23.952Z,53.82
2018-09-14T22:26:55.634Z,53.43
2018-09-14T22:29:27.549Z,53.59
2018-09-14T22:31:59.263Z,53.66
2018-09-14T22:34:31.038Z,53.42
2018-09-14T22:37:02.529Z,53.83
2018-09-14T22:39:34.324Z,54.35
2018-09-14T22:42:05.797Z,54.22
2018-09-14T22:44:37.740Z,53.58
2018-09-14T22:47:09.586Z,53.56
2018-09-14T22:49:41.588Z,54.52
2018-09-14T22:52:13.166Z,53.99
2018-09-14T22:54:45.066Z,53.75
2018-09-14T22:57:17.246Z,53.84
2018-09-14T22:59:49.042Z,54.48
2018-09-14T23:02:20.666Z,54.66
2018-09-14T23:04:52.617Z,54.63
2018-09-14T23:07:24.735Z,54.80
2018-09-14T23:09:56.550Z,54.71
2018-09-14T23:12:28.306Z,54.50
2018-09-14T23:15:00.043Z,54.83
2018-09-14T23:17:31.898Z,54.86
2018-09-14T23:20:04.000Z,54.69
2018-09-14T23:22:35.804Z,54.85
2018-09-14T23:25:07.707Z,54.92
2018-09-14T23:27:39.470Z,54.99
2018-09-14T23:30:11.465Z,54.73
2018-09-14T23:32:43.273Z,54.10
2018-09-14T23:35:14.891Z,55.03
2018-09-14T23:37:46.701Z,54.91
2018-09-14T23:40:18.874Z,55.01
2018-09-14T23:42:51.500Z,55.24
2018-09-14T23:45:24.085Z,55.31
2018-09-14T23:47:55.825Z,55.43
2018-09-14T23:50:28.371Z,54.71
2018-09-14T23:53:00.133Z,55.51
2018-09-14T23:55:32.261Z,54.72
2018-09-14T23:58:04.036Z,54.35
